createdAt,value
2019-01-12T00:00:21.509Z,9.23
2019-01-12T00:00:47.611Z,9.13
2019-01-12T00:01:13.720Z,9.19
2019-01-12T00:01:39.824Z,9.14
2019-01-12T00:02:05.941Z,9.18
2019-01-12T00:02:32.043Z,9.1
2019-01-12T00:02:58.146Z,9.14
2019-01-12T00:03:24.253Z,9.1
2019-01-12T00:03:50.359Z,9.03
2019-01-12T00:04:16.468Z,9.04
2019-01-12T00:04:42.606Z,9.06
2019-01-12T00:05:08.739Z,9.06
2019-01-12T00:05:34.882Z,9.03
2019-01-12T00:06:00.983Z,9.06
2019-01-12T00:06:27.087Z,9.1
2019-01-12T00:06:53.193Z,9.04
2019-01-12T00:07:19.299Z,9.16
2019-01-12T00:07:45.397Z,9.13
2019-01-12T00:08:11.507Z,9.11
2019-01-12T00:08:37.612Z,9.14
2019-01-12T00:09:03.740Z,9.21
2019-01-12T00:09:29.849Z,9.18
2019-01-12T00:09:55.956Z,9.14
2019-01-12T00:10:22.068Z,9.14
2019-01-12T00:10:48.169Z,9.18
2019-01-12T00:11:14.275Z,9.13
2019-01-12T00:11:40.384Z,9.14
2019-01-12T00:12:06.486Z,9.22
2019-01-12T00:12:32.594Z,9.18
2019-01-12T00:12:58.721Z,9.16
2019-01-12T00:13:24.835Z,9.16
2019-01-12T00:13:50.938Z,9.08
2019-01-12T00:14:17.041Z,9.16
2019-01-12T00:14:43.154Z,9.13
2019-01-12T00:15:09.261Z,9.1
2019-01-12T00:15:35.360Z,9.18
2019-01-12T00:16:01.496Z,9.18
2019-01-12T00:16:27.627Z,9.18
2019-01-12T00:16:53.734Z,9.18
2019-01-12T00:17:19.840Z,9.16
2019-01-12T00:17:45.941Z,9.11
2019-01-12T00:18:12.050Z,9.16
2019-01-12T00:18:38.158Z,9.13
2019-01-12T00:19:04.292Z,9.19
2019-01-12T00:19:30.401Z,9.13
2019-01-12T00:19:56.508Z,9.21
2019-01-12T00:20:22.638Z,9.25
2019-01-12T00:20:48.814Z,9.14
2019-01-12T00:21:14.905Z,9.22
2019-01-12T00:21:41.009Z,9.21
2019-01-12T00:22:07.109Z,9.14
2019-01-12T00:22:33.217Z,9.25
2019-01-12T00:22:59.329Z,9.18
2019-01-12T00:23:25.433Z,9.23
2019-01-12T00:23:51.574Z,9.23
2019-01-12T00:24:17.676Z,9.25
2019-01-12T00:24:44.775Z,9.21
2019-01-12T00:25:10.878Z,9.19
2019-01-12T00:25:37.017Z,9.22
2019-01-12T00:26:03.114Z,9.28
2019-01-12T00:26:29.254Z,9.18
2019-01-12T00:26:55.359Z,9.11
2019-01-12T00:27:21.468Z,9.18
2019-01-12T00:27:47.572Z,9.14
2019-01-12T00:28:13.703Z,9.18
2019-01-12T00:28:39.804Z,9.21
2019-01-12T00:29:05.917Z,9.26
2019-01-12T00:29:32.021Z,9.18
2019-01-12T00:29:58.120Z,9.11
2019-01-12T00:30:24.227Z,9.18
2019-01-12T00:30:50.333Z,9.11
2019-01-12T00:31:16.441Z,9.13
2019-01-12T00:31:42.552Z,9.22
2019-01-12T00:32:08.655Z,9.19
2019-01-12T00:32:34.755Z,9.16
2019-01-12T00:33:00.867Z,9.21
2019-01-12T00:33:26.976Z,9.21
2019-01-12T00:33:53.104Z,9.21
2019-01-12T00:34:19.206Z,9.11
2019-01-12T00:34:45.311Z,9.11
2019-01-12T00:35:11.420Z,9.23
2019-01-12T00:35:37.521Z,9.13
2019-01-12T00:36:03.631Z,9.18
2019-01-12T00:36:29.744Z,9.18
2019-01-12T00:36:55.847Z,9.21
2019-01-12T00:37:21.979Z,9.21
2019-01-12T00:37:48.086Z,9.14
2019-01-12T00:38:14.194Z,9.23
2019-01-12T00:38:40.298Z,9.16
2019-01-12T00:39:06.418Z,9.22
2019-01-12T00:39:32.517Z,9.16
2019-01-12T00:39:58.631Z,9.14
2019-01-12T00:40:24.740Z,9.16
2019-01-12T00:40:50.875Z,9.18
2019-01-12T00:41:16.980Z,9.19
2019-01-12T00:41:43.083Z,9.19
2019-01-12T00:42:09.176Z,9.18
2019-01-12T00:42:35.279Z,9.19
2019-01-12T00:43:01.392Z,9.13
2019-01-12T00:43:27.514Z,9.25
2019-01-12T00:43:53.623Z,9.06
2019-01-12T00:44:19.756Z,9.14
2019-01-12T00:44:45.863Z,9.16
2019-01-12T00:45:11.999Z,9.04
2019-01-12T00:45:38.109Z,9.1
2019-01-12T00:46:04.218Z,9.18
2019-01-12T00:46:30.353Z,9.18
2019-01-12T00:46:56.458Z,9.14
2019-01-12T00:47:22.568Z,9.18
2019-01-12T00:47:48.705Z,9.13
2019-01-12T00:48:14.839Z,9.21
2019-01-12T00:48:40.945Z,9.08
2019-01-12T00:49:07.054Z,9.21
2019-01-12T00:49:33.164Z,9.22
2019-01-12T00:49:59.304Z,9.13
2019-01-12T00:50:25.407Z,9.19
2019-01-12T00:50:51.507Z,9.23
2019-01-12T00:51:17.614Z,9.23
2019-01-12T00:51:43.722Z,9.19
2019-01-12T00:52:09.828Z,9.21
2019-01-12T00:52:35.928Z,9.21
2019-01-12T00:53:02.034Z,9.21
2019-01-12T00:53:28.134Z,9.23
2019-01-12T00:53:54.244Z,9.26
2019-01-12T00:54:20.380Z,9.21
2019-01-12T00:54:49.153Z,9.21
2019-01-12T00:55:15.252Z,9.18
2019-01-12T00:55:41.372Z,9.23
2019-01-12T00:56:07.515Z,9.23
2019-01-12T00:56:33.638Z,9.21
2019-01-12T00:56:59.770Z,9.19
2019-01-12T00:57:25.877Z,9.21
2019-01-12T00:57:51.990Z,9.21
2019-01-12T00:58:18.094Z,9.18
2019-01-12T00:58:44.198Z,9.22
2019-01-12T00:59:10.336Z,9.23
2019-01-12T00:59:36.446Z,9.14
2019-01-12T01:00:02.551Z,9.14
2019-01-12T01:00:28.665Z,9.1
2019-01-12T01:00:54.765Z,9.16
2019-01-12T01:01:20.868Z,9.18
2019-01-12T01:01:47.009Z,9.02
2019-01-12T01:02:13.119Z,9.13
2019-01-12T01:02:39.256Z,9.02
2019-01-12T01:03:05.356Z,9.08
2019-01-12T01:03:31.460Z,9.04
2019-01-12T01:03:57.566Z,9.03
2019-01-12T01:04:25.038Z,9.02
2019-01-12T01:04:50.766Z,9.06
2019-01-12T01:05:16.872Z,9
2019-01-12T01:05:42.977Z,9.02
2019-01-12T01:06:09.084Z,9.02
2019-01-12T01:06:35.219Z,9.02
2019-01-12T01:07:01.325Z,8.92
2019-01-12T01:07:27.433Z,9
2019-01-12T01:07:53.538Z,9.06
2019-01-12T01:08:19.644Z,9.11
2019-01-12T01:08:45.743Z,8.99
2019-01-12T01:09:11.843Z,9.1
2019-01-12T01:09:37.949Z,9.06
2019-01-12T01:10:04.057Z,9.02
2019-01-12T01:10:30.163Z,9.02
2019-01-12T01:10:56.268Z,9.03
2019-01-12T01:11:22.401Z,9.02
2019-01-12T01:11:48.514Z,9.08
2019-01-12T01:12:14.618Z,9.1
2019-01-12T01:12:40.726Z,9.11
2019-01-12T01:13:06.838Z,9.13
2019-01-12T01:13:32.933Z,9.03
2019-01-12T01:13:59.037Z,9.06
2019-01-12T01:14:25.148Z,9.1
2019-01-12T01:14:51.255Z,9.08
2019-01-12T01:15:17.354Z,9.06
2019-01-12T01:15:43.466Z,9
2019-01-12T01:16:09.572Z,9.02
2019-01-12T01:16:35.678Z,9.04
2019-01-12T01:17:01.815Z,9.06
2019-01-12T01:17:27.919Z,9.02
2019-01-12T01:17:54.051Z,9.04
2019-01-12T01:18:20.156Z,9.04
2019-01-12T01:18:46.267Z,9.1
2019-01-12T01:19:12.374Z,8.99
2019-01-12T01:19:38.476Z,9.08
2019-01-12T01:20:04.605Z,9.08
2019-01-12T01:20:30.705Z,9.11
2019-01-12T01:20:56.798Z,9.14
2019-01-12T01:21:24.253Z,9.14
2019-01-12T01:21:50.019Z,9.18
2019-01-12T01:22:16.113Z,9.08
2019-01-12T01:22:42.223Z,9.18
2019-01-12T01:23:08.326Z,9.14
2019-01-12T01:23:34.463Z,9.1
2019-01-12T01:24:00.574Z,9.13
2019-01-12T01:24:26.710Z,9.11
2019-01-12T01:24:53.812Z,9.11
2019-01-12T01:25:19.916Z,9.18
2019-01-12T01:25:46.023Z,9.21
2019-01-12T01:26:12.123Z,9.19
2019-01-12T01:26:38.230Z,9.22
2019-01-12T01:27:04.336Z,9.22
2019-01-12T01:27:30.472Z,9.25
2019-01-12T01:27:56.585Z,9.21
2019-01-12T01:28:22.692Z,9.23
2019-01-12T01:28:48.800Z,9.25
2019-01-12T01:29:14.907Z,9.25
2019-01-12T01:29:41.011Z,9.18
2019-01-12T01:30:07.121Z,9.08
2019-01-12T01:30:33.239Z,9.14
2019-01-12T01:30:59.347Z,9.14
2019-01-12T01:31:25.449Z,9.13
2019-01-12T01:31:51.561Z,9.11
2019-01-12T01:32:17.667Z,9.14
2019-01-12T01:32:43.766Z,9.1
2019-01-12T01:33:09.877Z,9.18
2019-01-12T01:33:36.023Z,9.14
2019-01-12T01:34:02.131Z,9.11
2019-01-12T01:34:28.267Z,9.06
2019-01-12T01:34:54.367Z,9.02
2019-01-12T01:35:20.472Z,9.13
2019-01-12T01:35:46.578Z,9.18
2019-01-12T01:36:12.687Z,9.13
2019-01-12T01:36:38.788Z,9.16
2019-01-12T01:37:04.890Z,9.11
2019-01-12T01:37:31.005Z,9.14
2019-01-12T01:37:57.146Z,9.16
2019-01-12T01:38:23.245Z,9.02
2019-01-12T01:38:49.350Z,9.03
2019-01-12T01:39:15.461Z,9.08
2019-01-12T01:39:41.573Z,9.1
2019-01-12T01:40:07.709Z,9.11
2019-01-12T01:40:33.812Z,9.08
2019-01-12T01:40:59.916Z,9.04
2019-01-12T01:41:26.021Z,9.1
2019-01-12T01:41:52.126Z,9.04
2019-01-12T01:42:18.233Z,9.08
2019-01-12T01:42:44.367Z,9
2019-01-12T01:43:10.475Z,9.02
2019-01-12T01:43:36.574Z,9.08
2019-01-12T01:44:02.687Z,9.03
2019-01-12T01:44:28.817Z,9.11
2019-01-12T01:44:54.927Z,9.04
2019-01-12T01:45:21.073Z,9.11
2019-01-12T01:45:47.219Z,9.02
2019-01-12T01:46:13.323Z,9.06
2019-01-12T01:46:39.422Z,9.02
2019-01-12T01:47:05.536Z,8.97
2019-01-12T01:47:31.634Z,8.92
2019-01-12T01:47:57.775Z,8.95
2019-01-12T01:48:23.879Z,9.02
2019-01-12T01:48:49.984Z,8.89
2019-01-12T01:49:16.089Z,9.03
2019-01-12T01:49:42.197Z,8.97
2019-01-12T01:50:08.298Z,8.92
2019-01-12T01:50:34.410Z,8.92
2019-01-12T01:51:00.518Z,8.97
2019-01-12T01:51:26.617Z,8.95
2019-01-12T01:51:52.731Z,8.99
2019-01-12T01:52:18.831Z,8.99
2019-01-12T01:52:44.926Z,8.94
2019-01-12T01:53:11.031Z,8.99
2019-01-12T01:53:37.145Z,8.91
2019-01-12T01:54:03.244Z,8.87
2019-01-12T01:54:29.348Z,8.99
2019-01-12T01:54:56.449Z,8.87
2019-01-12T01:55:22.552Z,8.87
2019-01-12T01:55:48.662Z,8.88
2019-01-12T01:56:14.762Z,8.89
2019-01-12T01:56:40.873Z,8.87
2019-01-12T01:57:06.982Z,8.97
2019-01-12T01:57:33.095Z,8.97
2019-01-12T01:57:59.229Z,8.97
2019-01-12T01:58:25.459Z,8.92
2019-01-12T01:58:51.564Z,9.04
2019-01-12T01:59:17.694Z,9.03
2019-01-12T01:59:43.798Z,8.89
2019-01-12T02:00:09.903Z,8.91
2019-01-12T02:00:36.005Z,8.95
2019-01-12T02:01:02.116Z,9
2019-01-12T02:01:28.217Z,8.99
2019-01-12T02:01:54.323Z,8.92
2019-01-12T02:02:20.427Z,8.89
2019-01-12T02:02:46.536Z,9.02
2019-01-12T02:03:12.669Z,9.02
2019-01-12T02:03:38.774Z,9.02
2019-01-12T02:04:04.884Z,9.02
2019-01-12T02:04:31.019Z,9.02
2019-01-12T02:04:57.127Z,9.08
2019-01-12T02:05:23.233Z,8.97
2019-01-12T02:05:49.336Z,9.04
2019-01-12T02:06:15.448Z,9.02
2019-01-12T02:06:41.547Z,9.04
2019-01-12T02:07:07.660Z,9.02
2019-01-12T02:07:33.751Z,9.02
2019-01-12T02:07:59.858Z,9.03
2019-01-12T02:08:25.965Z,9.02
2019-01-12T02:08:52.078Z,9.08
2019-01-12T02:09:18.177Z,9.03
2019-01-12T02:09:44.285Z,9.13
2019-01-12T02:10:10.400Z,9.04
2019-01-12T02:10:36.508Z,9.21
2019-01-12T02:11:02.619Z,9.19
2019-01-12T02:11:28.711Z,9.11
2019-01-12T02:11:54.820Z,9.14
2019-01-12T02:12:20.928Z,8.99
2019-01-12T02:12:47.035Z,9.02
2019-01-12T02:13:13.165Z,9
2019-01-12T02:13:39.279Z,9.02
2019-01-12T02:14:05.373Z,9.03
2019-01-12T02:14:31.482Z,8.97
2019-01-12T02:14:57.587Z,9.02
2019-01-12T02:15:23.694Z,9.02
2019-01-12T02:15:49.810Z,9.02
2019-01-12T02:16:15.943Z,9.02
2019-01-12T02:16:42.049Z,9.11
2019-01-12T02:17:08.180Z,9.08
2019-01-12T02:17:34.282Z,9.04
2019-01-12T02:18:00.394Z,9.1
2019-01-12T02:18:26.516Z,9.13
2019-01-12T02:18:52.626Z,9.13
2019-01-12T02:19:18.729Z,9.13
2019-01-12T02:19:44.832Z,9.18
2019-01-12T02:20:10.941Z,9.1
2019-01-12T02:20:37.078Z,9.04
2019-01-12T02:21:03.186Z,9.04
2019-01-12T02:21:29.317Z,9.08
2019-01-12T02:21:55.418Z,9.04
2019-01-12T02:22:21.536Z,9.14
2019-01-12T02:22:47.655Z,9.18
2019-01-12T02:23:13.768Z,9.08
2019-01-12T02:23:39.879Z,9.16
2019-01-12T02:24:05.980Z,9.1
2019-01-12T02:24:32.092Z,9.11
2019-01-12T02:25:00.001Z,9.14
2019-01-12T02:25:26.267Z,9.11
2019-01-12T02:25:52.372Z,9.14
2019-01-12T02:26:18.482Z,9.16
2019-01-12T02:26:44.648Z,9.22
2019-01-12T02:27:10.757Z,9.25
2019-01-12T02:27:36.864Z,9.21
2019-01-12T02:28:02.999Z,9.19
2019-01-12T02:28:29.108Z,9.19
2019-01-12T02:28:55.209Z,9.19
2019-01-12T02:29:21.318Z,9.19
2019-01-12T02:29:47.435Z,9.23
2019-01-12T02:30:13.596Z,9.25
2019-01-12T02:30:39.719Z,9.23
2019-01-12T02:31:05.889Z,9.26
2019-01-12T02:31:32.064Z,9.26
2019-01-12T02:31:58.200Z,9.23
2019-01-12T02:32:24.299Z,9.21
2019-01-12T02:32:50.415Z,9.19
2019-01-12T02:33:16.517Z,9.21
2019-01-12T02:33:42.615Z,9.26
2019-01-12T02:34:08.727Z,9.32
2019-01-12T02:34:34.833Z,9.29
2019-01-12T02:35:00.936Z,9.32
2019-01-12T02:35:27.062Z,9.22
2019-01-12T02:35:53.155Z,9.26
2019-01-12T02:36:19.255Z,9.28
2019-01-12T02:36:45.394Z,9.28
2019-01-12T02:37:11.493Z,9.28
2019-01-12T02:37:37.630Z,9.25
2019-01-12T02:38:03.736Z,9.36
2019-01-12T02:38:29.847Z,9.28
2019-01-12T02:38:56.003Z,9.25
2019-01-12T02:39:22.138Z,9.26
2019-01-12T02:39:48.240Z,9.19
2019-01-12T02:40:14.366Z,9.23
2019-01-12T02:40:40.498Z,9.26
2019-01-12T02:41:06.628Z,9.23
2019-01-12T02:41:32.760Z,9.21
2019-01-12T02:41:58.899Z,9.22
2019-01-12T02:42:25.129Z,9.21
2019-01-12T02:42:51.239Z,9.23
2019-01-12T02:43:17.342Z,9.28
2019-01-12T02:43:43.455Z,9.22
2019-01-12T02:44:09.614Z,9.25
2019-01-12T02:44:35.718Z,9.25
2019-01-12T02:45:01.830Z,9.36
2019-01-12T02:45:27.930Z,9.34
2019-01-12T02:45:54.027Z,9.32
2019-01-12T02:46:20.136Z,9.34
2019-01-12T02:46:46.241Z,9.34
2019-01-12T02:47:12.376Z,9.36
2019-01-12T02:47:38.486Z,9.31
2019-01-12T02:48:04.645Z,9.29
2019-01-12T02:48:30.756Z,9.25
2019-01-12T02:48:56.890Z,9.23
2019-01-12T02:49:22.999Z,9.19
2019-01-12T02:49:49.111Z,9.26
2019-01-12T02:50:15.211Z,9.21
2019-01-12T02:50:41.315Z,9.29
2019-01-12T02:51:07.418Z,9.21
2019-01-12T02:51:33.583Z,9.11
2019-01-12T02:51:59.689Z,9.11
2019-01-12T02:52:25.821Z,9.11
2019-01-12T02:52:51.963Z,9.14
2019-01-12T02:53:18.067Z,9.1
2019-01-12T02:53:44.173Z,9.13
2019-01-12T02:54:10.278Z,9.13
2019-01-12T02:54:36.399Z,9.14
2019-01-12T02:55:08.425Z,9.23
2019-01-12T02:55:30.095Z,9.13
2019-01-12T02:55:56.241Z,9.13
2019-01-12T02:56:22.376Z,9.16
2019-01-12T02:56:48.469Z,9.1
2019-01-12T02:57:14.572Z,9.16
2019-01-12T02:57:40.683Z,9.18
2019-01-12T02:58:06.818Z,9.08
2019-01-12T02:58:33.916Z,9.1
2019-01-12T02:59:00.018Z,9.13
2019-01-12T02:59:26.148Z,9.18
2019-01-12T02:59:52.257Z,9.18
2019-01-12T03:00:18.381Z,9.13
2019-01-12T03:00:44.495Z,9.23
2019-01-12T03:01:10.676Z,9.21
2019-01-12T03:01:36.783Z,9.22
2019-01-12T03:02:02.898Z,9.23
2019-01-12T03:02:29.008Z,9.25
2019-01-12T03:02:55.108Z,9.16
2019-01-12T03:03:21.219Z,9.22
2019-01-12T03:03:47.319Z,9.25
2019-01-12T03:04:13.453Z,9.14
2019-01-12T03:04:39.589Z,9.19
2019-01-12T03:05:05.689Z,9.13
2019-01-12T03:05:31.798Z,9.16
2019-01-12T03:05:57.916Z,9.14
2019-01-12T03:06:24.086Z,9.16
2019-01-12T03:06:50.188Z,9.14
2019-01-12T03:07:16.294Z,9.19
2019-01-12T03:07:42.402Z,9.19
2019-01-12T03:08:08.529Z,9.14
2019-01-12T03:08:34.662Z,9.04
2019-01-12T03:09:00.772Z,9.16
2019-01-12T03:09:26.906Z,9.14
2019-01-12T03:09:53.050Z,9.16
2019-01-12T03:10:19.192Z,9.16
2019-01-12T03:10:45.294Z,9.14
2019-01-12T03:11:11.452Z,9.16
2019-01-12T03:11:37.590Z,9.11
2019-01-12T03:12:03.698Z,9.11
2019-01-12T03:12:29.804Z,9.19
2019-01-12T03:12:55.942Z,9.1
2019-01-12T03:13:22.038Z,9.08
2019-01-12T03:13:48.148Z,8.99
2019-01-12T03:14:14.254Z,9.03
2019-01-12T03:14:40.388Z,9.04
2019-01-12T03:15:07.459Z,8.95
2019-01-12T03:15:33.619Z,9.11
2019-01-12T03:15:59.722Z,8.97
2019-01-12T03:16:25.861Z,9.02
2019-01-12T03:16:52.015Z,9.1
2019-01-12T03:17:18.121Z,8.87
2019-01-12T03:17:44.219Z,8.95
2019-01-12T03:18:10.360Z,8.94
2019-01-12T03:18:36.490Z,8.91
2019-01-12T03:19:02.599Z,8.88
2019-01-12T03:19:28.735Z,8.91
2019-01-12T03:19:54.841Z,8.94
2019-01-12T03:20:20.967Z,8.87
2019-01-12T03:20:47.077Z,8.82
2019-01-12T03:21:13.213Z,8.88
2019-01-12T03:21:39.352Z,8.91
2019-01-12T03:22:05.538Z,8.94
2019-01-12T03:22:31.644Z,8.91
2019-01-12T03:22:57.752Z,8.85
2019-01-12T03:23:23.889Z,8.87
2019-01-12T03:23:50.075Z,8.85
2019-01-12T03:24:16.222Z,8.82
2019-01-12T03:24:42.325Z,8.88
2019-01-12T03:25:17.112Z,8.85
2019-01-12T03:25:35.538Z,8.87
2019-01-12T03:26:01.640Z,8.85
2019-01-12T03:26:27.776Z,8.88
2019-01-12T03:26:53.914Z,8.84
2019-01-12T03:27:20.022Z,8.84
2019-01-12T03:27:46.135Z,8.94
2019-01-12T03:28:12.268Z,8.94
2019-01-12T03:28:38.408Z,8.95
2019-01-12T03:29:04.533Z,8.81
2019-01-12T03:29:30.717Z,8.91
2019-01-12T03:29:56.830Z,8.89
2019-01-12T03:30:22.966Z,8.89
2019-01-12T03:30:49.150Z,8.82
2019-01-12T03:31:15.280Z,8.81
2019-01-12T03:31:41.407Z,8.92
2019-01-12T03:32:07.565Z,8.82
2019-01-12T03:32:33.699Z,8.92
2019-01-12T03:32:59.836Z,8.82
2019-01-12T03:33:26.034Z,8.87
2019-01-12T03:33:52.192Z,8.92
2019-01-12T03:34:18.323Z,8.87
2019-01-12T03:34:44.423Z,8.87
2019-01-12T03:35:10.645Z,8.84
2019-01-12T03:35:36.744Z,8.94
2019-01-12T03:36:02.852Z,8.92
2019-01-12T03:36:28.991Z,8.94
2019-01-12T03:36:55.099Z,8.91
2019-01-12T03:37:21.225Z,8.88
2019-01-12T03:37:47.364Z,8.92
2019-01-12T03:38:13.466Z,8.99
2019-01-12T03:38:39.571Z,8.97
2019-01-12T03:39:05.702Z,8.88
2019-01-12T03:39:31.807Z,8.97
2019-01-12T03:39:57.918Z,8.95
2019-01-12T03:40:24.111Z,8.97
2019-01-12T03:40:50.242Z,8.95
2019-01-12T03:41:16.378Z,9.02
2019-01-12T03:41:42.480Z,9.04
2019-01-12T03:42:08.586Z,9.02
2019-01-12T03:42:34.691Z,8.89
2019-01-12T03:43:00.824Z,9.04
2019-01-12T03:43:26.926Z,8.91
2019-01-12T03:43:53.038Z,8.94
2019-01-12T03:44:19.147Z,8.94
2019-01-12T03:44:45.290Z,8.87
2019-01-12T03:45:11.446Z,8.87
2019-01-12T03:45:37.581Z,8.87
2019-01-12T03:46:03.700Z,8.92
2019-01-12T03:46:29.831Z,8.91
2019-01-12T03:46:55.937Z,8.95
2019-01-12T03:47:22.068Z,8.97
2019-01-12T03:47:48.175Z,8.94
2019-01-12T03:48:14.276Z,8.85
2019-01-12T03:48:40.486Z,8.87
2019-01-12T03:49:06.608Z,8.89
2019-01-12T03:49:32.737Z,8.85
2019-01-12T03:49:58.871Z,8.85
2019-01-12T03:50:24.974Z,8.87
2019-01-12T03:50:51.085Z,8.88
2019-01-12T03:51:17.193Z,8.89
2019-01-12T03:51:43.298Z,8.88
2019-01-12T03:52:09.397Z,8.91
2019-01-12T03:52:35.540Z,8.82
2019-01-12T03:53:01.701Z,8.87
2019-01-12T03:53:27.808Z,8.88
2019-01-12T03:53:53.917Z,8.85
2019-01-12T03:54:20.021Z,8.85
2019-01-12T03:54:46.160Z,8.87
2019-01-12T03:55:12.330Z,8.91
2019-01-12T03:55:40.440Z,8.85
2019-01-12T03:56:06.541Z,8.87
2019-01-12T03:56:32.670Z,8.87
2019-01-12T03:56:58.808Z,8.87
2019-01-12T03:57:24.909Z,8.87
2019-01-12T03:57:51.015Z,8.87
2019-01-12T03:58:17.150Z,8.87
2019-01-12T03:58:43.253Z,9
2019-01-12T03:59:09.360Z,8.99
2019-01-12T03:59:35.465Z,9.02
2019-01-12T04:00:01.608Z,8.95
2019-01-12T04:00:27.758Z,9
2019-01-12T04:00:53.921Z,8.95
2019-01-12T04:01:20.154Z,8.97
2019-01-12T04:01:46.297Z,8.95
2019-01-12T04:02:12.363Z,8.91
2019-01-12T04:02:38.476Z,8.94
2019-01-12T04:03:04.600Z,8.97
2019-01-12T04:03:30.699Z,9
2019-01-12T04:03:56.805Z,8.97
2019-01-12T04:04:22.911Z,8.95
2019-01-12T04:04:49.078Z,8.95
2019-01-12T04:05:15.190Z,8.88
2019-01-12T04:05:41.283Z,8.85
2019-01-12T04:06:07.424Z,8.91
2019-01-12T04:06:33.528Z,8.92
2019-01-12T04:06:59.629Z,8.87
2019-01-12T04:07:25.769Z,8.82
2019-01-12T04:07:51.907Z,8.87
2019-01-12T04:08:18.011Z,8.87
2019-01-12T04:08:44.127Z,8.87
2019-01-12T04:09:10.229Z,8.85
2019-01-12T04:09:36.326Z,8.87
2019-01-12T04:10:02.436Z,8.84
2019-01-12T04:10:28.540Z,8.82
2019-01-12T04:10:54.669Z,8.82
2019-01-12T04:11:20.787Z,8.85
2019-01-12T04:11:46.957Z,8.82
2019-01-12T04:12:13.066Z,8.87
2019-01-12T04:12:39.200Z,8.91
2019-01-12T04:13:05.307Z,8.94
2019-01-12T04:13:31.409Z,8.91
2019-01-12T04:13:57.518Z,8.91
2019-01-12T04:14:23.656Z,9
2019-01-12T04:14:49.756Z,8.85
2019-01-12T04:15:15.867Z,8.97
2019-01-12T04:15:41.973Z,8.92
2019-01-12T04:16:08.073Z,8.94
2019-01-12T04:16:34.182Z,8.82
2019-01-12T04:17:00.286Z,8.87
2019-01-12T04:17:26.394Z,8.87
2019-01-12T04:17:52.533Z,8.82
2019-01-12T04:18:18.632Z,8.91
2019-01-12T04:18:44.766Z,8.88
2019-01-12T04:19:10.871Z,8.95
2019-01-12T04:19:37.039Z,8.89
2019-01-12T04:20:03.146Z,8.82
2019-01-12T04:20:29.279Z,8.88
2019-01-12T04:20:55.423Z,8.84
2019-01-12T04:21:21.566Z,8.87
2019-01-12T04:21:47.670Z,8.88
2019-01-12T04:22:13.775Z,8.87
2019-01-12T04:22:39.878Z,8.94
2019-01-12T04:23:06.046Z,8.88
2019-01-12T04:23:32.148Z,8.89
2019-01-12T04:23:58.250Z,8.95
2019-01-12T04:24:24.362Z,8.85
2019-01-12T04:24:50.491Z,8.92
2019-01-12T04:25:16.565Z,8.89
2019-01-12T04:25:44.680Z,8.87
2019-01-12T04:26:10.793Z,8.87
2019-01-12T04:26:36.896Z,8.88
2019-01-12T04:27:03.001Z,8.88
2019-01-12T04:27:29.108Z,8.85
2019-01-12T04:27:55.258Z,8.84
2019-01-12T04:28:21.400Z,8.82
2019-01-12T04:28:47.563Z,8.82
2019-01-12T04:29:13.691Z,8.79
2019-01-12T04:29:39.799Z,8.76
2019-01-12T04:30:05.900Z,8.82
2019-01-12T04:30:32.037Z,8.78
2019-01-12T04:30:58.136Z,8.74
2019-01-12T04:31:24.243Z,8.79
2019-01-12T04:31:50.352Z,8.81
2019-01-12T04:32:16.483Z,8.78
2019-01-12T04:32:42.593Z,8.79
2019-01-12T04:33:08.724Z,8.78
2019-01-12T04:33:34.819Z,8.79
2019-01-12T04:34:00.930Z,8.79
2019-01-12T04:34:27.096Z,8.74
2019-01-12T04:34:53.228Z,8.74
2019-01-12T04:35:19.338Z,8.76
2019-01-12T04:35:45.460Z,8.73
2019-01-12T04:36:11.567Z,8.73
2019-01-12T04:36:37.679Z,8.74
2019-01-12T04:37:03.783Z,8.64
2019-01-12T04:37:29.888Z,8.7
2019-01-12T04:37:55.994Z,8.71
2019-01-12T04:38:22.093Z,8.69
2019-01-12T04:38:48.262Z,8.7
2019-01-12T04:39:14.368Z,8.66
2019-01-12T04:39:40.499Z,8.67
2019-01-12T04:40:06.601Z,8.69
2019-01-12T04:40:32.716Z,8.7
2019-01-12T04:40:58.826Z,8.7
2019-01-12T04:41:24.929Z,8.6
2019-01-12T04:41:51.061Z,8.66
2019-01-12T04:42:17.200Z,8.7
2019-01-12T04:42:43.346Z,8.74
2019-01-12T04:43:09.470Z,8.7
2019-01-12T04:43:35.561Z,8.67
2019-01-12T04:44:01.712Z,8.71
2019-01-12T04:44:27.825Z,8.56
2019-01-12T04:44:53.989Z,8.71
2019-01-12T04:45:20.144Z,8.63
2019-01-12T04:45:46.246Z,8.74
2019-01-12T04:46:12.485Z,8.71
2019-01-12T04:46:38.598Z,8.67
2019-01-12T04:47:04.689Z,8.69
2019-01-12T04:47:30.794Z,8.7
2019-01-12T04:47:56.955Z,8.71
2019-01-12T04:48:24.058Z,8.71
2019-01-12T04:48:50.164Z,8.7
2019-01-12T04:49:16.289Z,8.74
2019-01-12T04:49:42.392Z,8.78
2019-01-12T04:50:08.502Z,8.76
2019-01-12T04:50:34.608Z,8.78
2019-01-12T04:51:00.717Z,8.73
2019-01-12T04:51:26.917Z,8.74
2019-01-12T04:51:53.024Z,8.7
2019-01-12T04:52:19.133Z,8.79
2019-01-12T04:52:45.295Z,8.78
2019-01-12T04:53:11.408Z,8.74
2019-01-12T04:53:37.553Z,8.78
2019-01-12T04:54:03.693Z,8.7
2019-01-12T04:54:29.825Z,8.74
2019-01-12T04:54:55.934Z,8.78
2019-01-12T04:55:22.073Z,8.73
2019-01-12T04:55:49.161Z,8.76
2019-01-12T04:56:15.301Z,8.74
2019-01-12T04:56:41.399Z,8.78
2019-01-12T04:57:07.517Z,8.87
2019-01-12T04:57:33.617Z,8.82
2019-01-12T04:57:59.723Z,8.82
2019-01-12T04:58:25.848Z,8.87
2019-01-12T04:58:51.980Z,8.79
2019-01-12T04:59:18.088Z,8.89
2019-01-12T04:59:44.221Z,8.85
2019-01-12T05:00:10.326Z,8.82
2019-01-12T05:00:36.459Z,8.85
2019-01-12T05:01:02.561Z,8.79
2019-01-12T05:01:28.663Z,8.87
2019-01-12T05:01:54.753Z,8.79
2019-01-12T05:02:20.894Z,8.89
2019-01-12T05:02:47.988Z,8.74
2019-01-12T05:03:14.119Z,8.81
2019-01-12T05:03:40.251Z,8.87
2019-01-12T05:04:06.356Z,8.76
2019-01-12T05:04:32.497Z,8.78
2019-01-12T05:04:58.628Z,8.89
2019-01-12T05:05:24.740Z,8.73
2019-01-12T05:05:50.955Z,8.78
2019-01-12T05:06:17.080Z,8.85
2019-01-12T05:06:43.186Z,8.88
2019-01-12T05:07:09.291Z,8.81
2019-01-12T05:07:35.398Z,8.79
2019-01-12T05:08:01.505Z,8.84
2019-01-12T05:08:27.609Z,8.82
2019-01-12T05:08:53.713Z,8.78
2019-01-12T05:09:19.851Z,8.79
2019-01-12T05:09:45.961Z,8.79
2019-01-12T05:10:12.063Z,8.78
2019-01-12T05:10:38.194Z,8.78
2019-01-12T05:11:04.301Z,8.87
2019-01-12T05:11:30.409Z,8.87
2019-01-12T05:11:56.534Z,8.87
2019-01-12T05:12:22.644Z,8.81
2019-01-12T05:12:48.783Z,8.76
2019-01-12T05:13:14.886Z,8.79
2019-01-12T05:13:40.997Z,8.91
2019-01-12T05:14:07.104Z,8.79
2019-01-12T05:14:33.258Z,8.85
2019-01-12T05:14:59.367Z,8.85
2019-01-12T05:15:25.471Z,8.84
2019-01-12T05:15:51.572Z,8.82
2019-01-12T05:16:17.690Z,8.88
2019-01-12T05:16:43.826Z,8.89
2019-01-12T05:17:09.929Z,8.82
2019-01-12T05:17:36.031Z,8.82
2019-01-12T05:18:02.194Z,8.88
2019-01-12T05:18:28.392Z,8.81
2019-01-12T05:18:54.526Z,8.85
2019-01-12T05:19:20.690Z,8.88
2019-01-12T05:19:46.800Z,8.82
2019-01-12T05:20:12.912Z,8.78
2019-01-12T05:20:39.081Z,8.82
2019-01-12T05:21:05.318Z,8.81
2019-01-12T05:21:31.378Z,8.74
2019-01-12T05:21:57.482Z,8.81
2019-01-12T05:22:23.590Z,8.84
2019-01-12T05:22:49.693Z,8.81
2019-01-12T05:23:15.824Z,8.92
2019-01-12T05:23:41.927Z,8.78
2019-01-12T05:24:08.089Z,8.74
2019-01-12T05:24:34.205Z,8.74
2019-01-12T05:25:00.318Z,8.73
2019-01-12T05:25:26.423Z,8.79
2019-01-12T05:25:54.503Z,8.76
2019-01-12T05:26:20.614Z,8.82
2019-01-12T05:26:46.751Z,8.81
2019-01-12T05:27:12.907Z,8.85
2019-01-12T05:27:39.017Z,8.73
2019-01-12T05:28:05.126Z,8.85
2019-01-12T05:28:31.287Z,8.81
2019-01-12T05:28:57.389Z,8.81
2019-01-12T05:29:23.492Z,8.89
2019-01-12T05:29:49.632Z,8.78
2019-01-12T05:30:16.956Z,8.74
2019-01-12T05:30:43.104Z,8.79
2019-01-12T05:31:09.239Z,8.78
2019-01-12T05:31:35.340Z,8.88
2019-01-12T05:32:01.450Z,8.79
2019-01-12T05:32:27.735Z,8.85
2019-01-12T05:32:53.895Z,8.79
2019-01-12T05:33:19.998Z,8.87
2019-01-12T05:33:46.162Z,8.87
2019-01-12T05:34:12.294Z,8.74
2019-01-12T05:34:38.402Z,8.89
2019-01-12T05:35:04.541Z,8.74
2019-01-12T05:35:30.642Z,8.79
2019-01-12T05:35:56.747Z,8.81
2019-01-12T05:36:22.857Z,8.78
2019-01-12T05:36:48.957Z,8.76
2019-01-12T05:37:15.063Z,8.82
2019-01-12T05:37:41.173Z,8.76
2019-01-12T05:38:07.281Z,8.84
2019-01-12T05:38:33.380Z,8.71
2019-01-12T05:38:59.490Z,8.76
2019-01-12T05:39:25.599Z,8.74
2019-01-12T05:39:51.705Z,8.7
2019-01-12T05:40:17.838Z,8.71
2019-01-12T05:40:43.947Z,8.6
2019-01-12T05:41:10.150Z,8.61
2019-01-12T05:41:36.253Z,8.61
2019-01-12T05:42:02.356Z,8.7
2019-01-12T05:42:28.464Z,8.67
2019-01-12T05:42:54.571Z,8.64
2019-01-12T05:43:20.701Z,8.56
2019-01-12T05:43:46.812Z,8.63
2019-01-12T05:44:12.915Z,8.6
2019-01-12T05:44:39.049Z,8.6
2019-01-12T05:45:05.174Z,8.6
2019-01-12T05:45:31.285Z,8.66
2019-01-12T05:45:57.390Z,8.66
2019-01-12T05:46:23.495Z,8.63
2019-01-12T05:46:49.591Z,8.63
2019-01-12T05:47:15.694Z,8.58
2019-01-12T05:47:41.802Z,8.64
2019-01-12T05:48:07.956Z,8.67
2019-01-12T05:48:34.057Z,8.64
2019-01-12T05:49:00.160Z,8.63